Time;durP1;ratioP1;P1;durP2;ratioP2;P2;SDS_P1;SDS_P2;PMS_P1;PMS_P2;Temp;Humidity;BMP_temperature;BMP_pressure;BME280_temperature;BME280_humidity;BME280_pressure;Samples;Min_cycle;Max_cycle;Signal;HPM_P1;HPM_P2
2020/12/15 00:01:24;;;;;;;71.45;29.42;;;2.60;99.90;;;;;;4993731;28;20029;-80
2020/12/15 00:03:50;;;;;;;69.78;30.02;;;2.60;99.90;;;;;;4994887;28;20029;-79
2020/12/15 00:06:16;;;;;;;66.32;28.42;;;2.60;99.90;;;;;;5010494;28;20030;-79
2020/12/15 00:08:43;;;;;;;67.10;28.30;;;2.70;99.90;;;;;;5015205;28;20018;-80
2020/12/15 00:11:09;;;;;;;70.55;28.17;;;2.60;99.90;;;;;;5006698;28;20114;-80
2020/12/15 00:13:35;;;;;;;73.88;28.27;;;2.60;99.90;;;;;;4995248;28;20109;-80
2020/12/15 00:16:06;;;;;;;69.05;27.38;;;2.60;99.90;;;;;;5010093;28;20114;-80
2020/12/15 00:18:32;;;;;;;68.63;27.30;;;2.60;99.90;;;;;;4995791;28;20058;-80
2020/12/15 00:20:57;;;;;;;71.20;28.98;;;2.70;99.90;;;;;;5010935;28;20037;-79
2020/12/15 00:23:23;;;;;;;68.35;27.95;;;2.60;99.90;;;;;;4993757;28;20033;-79
2020/12/15 00:25:49;;;;;;;71.07;27.88;;;2.60;99.90;;;;;;4994323;28;20022;-80
2020/12/15 00:28:15;;;;;;;82.22;32.50;;;2.60;99.90;;;;;;4994159;28;20030;-79
2020/12/15 00:30:41;;;;;;;76.75;32.00;;;2.60;99.90;;;;;;4994214;28;20022;-79
2020/12/15 00:33:06;;;;;;;74.25;30.35;;;2.60;99.90;;;;;;4993514;28;20354;-79
2020/12/15 00:35:32;;;;;;;74.28;28.85;;;2.60;99.90;;;;;;4994041;28;20026;-80
2020/12/15 00:37:58;;;;;;;68.20;29.02;;;2.60;99.90;;;;;;4994304;28;20456;-78
2020/12/15 00:40:24;;;;;;;68.80;28.73;;;2.60;99.90;;;;;;5009293;28;20073;-79
2020/12/15 00:42:49;;;;;;;70.45;27.70;;;2.60;99.90;;;;;;4994354;28;20468;-79
2020/12/15 00:45:15;;;;;;;67.30;27.42;;;2.60;99.90;;;;;;4993988;28;20030;-78
2020/12/15 00:47:41;;;;;;;68.10;26.15;;;2.60;99.90;;;;;;5009172;28;20026;-80
2020/12/15 00:50:07;;;;;;;68.00;26.58;;;2.70;99.90;;;;;;4993763;28;20149;-79
2020/12/15 00:52:33;;;;;;;65.38;27.23;;;2.60;99.90;;;;;;5009228;28;20084;-79
2020/12/15 00:54:59;;;;;;;65.15;26.35;;;2.60;99.90;;;;;;4993347;28;20027;-79
2020/12/15 00:57:24;;;;;;;67.28;26.73;;;2.60;99.90;;;;;;4993427;28;20404;-79
2020/12/15 00:59:53;;;;;;;73.80;27.83;;;2.60;99.90;;;;;;5008893;28;20023;-79
2020/12/15 01:02:19;;;;;;;76.43;29.80;;;2.60;99.90;;;;;;4993694;28;20026;-79
2020/12/15 01:04:45;;;;;;;75.47;27.27;;;2.60;99.90;;;;;;4992973;28;20033;-79
2020/12/15 01:07:10;;;;;;;61.17;25.80;;;2.60;99.90;;;;;;5008552;28;20022;-78
2020/12/15 01:09:36;;;;;;;67.25;25.85;;;2.60;99.90;;;;;;5008912;28;20109;-79
2020/12/15 01:12:12;;;;;;;57.20;24.88;;;2.60;99.90;;;;;;4993706;28;20023;-79
2020/12/15 01:14:38;;;;;;;63.33;24.75;;;2.60;99.90;;;;;;4994051;28;20025;-79
2020/12/15 01:17:09;;;;;;;60.83;26.63;;;2.60;99.90;;;;;;4993856;28;20026;-79
2020/12/15 01:19:34;;;;;;;63.97;26.20;;;2.60;99.90;;;;;;4993735;28;20022;-79
2020/12/15 01:22:01;;;;;;;58.80;24.98;;;2.70;99.90;;;;;;5009703;28;20508;-79
2020/12/15 01:24:26;;;;;;;65.93;25.70;;;2.70;99.90;;;;;;4993664;28;20523;-79
2020/12/15 01:26:52;;;;;;;60.97;25.20;;;2.60;99.90;;;;;;4993571;28;20030;-78
2020/12/15 01:29:18;;;;;;;58.35;24.75;;;2.70;99.90;;;;;;4993602;28;20072;-79
2020/12/15 01:31:44;;;;;;;59.72;25.88;;;2.70;99.90;;;;;;4993771;28;20034;-80
2020/12/15 01:34:10;;;;;;;61.63;26.60;;;2.60;99.90;;;;;;4976151;28;20030;-79
2020/12/15 01:36:36;;;;;;;70.30;27.40;;;2.70;99.90;;;;;;4979722;28;20580;-79
2020/12/15 01:39:02;;;;;;;58.30;26.17;;;2.70;99.90;;;;;;4979445;28;20393;-78
2020/12/15 01:41:28;;;;;;;60.78;23.77;;;2.70;99.90;;;;;;4997360;28;20109;-79
2020/12/15 01:43:55;;;;;;;54.50;23.92;;;2.70;99.90;;;;;;5012148;28;20124;-78
2020/12/15 01:46:21;;;;;;;61.45;24.42;;;2.70;99.90;;;;;;4996935;28;20572;-79
2020/12/15 01:48:47;;;;;;;49.67;22.20;;;2.70;99.90;;;;;;4997533;28;20030;-78
2020/12/15 01:51:15;;;;;;;56.25;23.23;;;2.70;99.90;;;;;;4997638;28;20026;-78
2020/12/15 01:53:42;;;;;;;60.33;25.00;;;2.70;99.90;;;;;;4998185;28;20077;-78
2020/12/15 01:56:09;;;;;;;59.22;24.10;;;2.70;99.90;;;;;;4980294;28;20034;-78
2020/12/15 01:58:35;;;;;;;57.15;23.17;;;2.70;99.90;;;;;;4996714;28;20085;-79
2020/12/15 02:01:01;;;;;;;58.45;24.08;;;2.70;99.90;;;;;;4996190;28;20026;-79
2020/12/15 02:03:26;;;;;;;49.58;21.40;;;2.70;99.90;;;;;;4997122;28;20035;-79
2020/12/15 02:05:52;;;;;;;51.92;23.20;;;2.70;99.90;;;;;;4996641;28;20041;-79
2020/12/15 02:08:18;;;;;;;52.05;23.38;;;2.70;99.90;;;;;;4996866;28;20444;-79
2020/12/15 02:10:44;;;;;;;51.42;22.08;;;2.70;99.90;;;;;;4995690;28;20085;-79
2020/12/15 02:13:09;;;;;;;58.42;23.73;;;2.70;99.90;;;;;;4995854;28;20465;-79
2020/12/15 02:15:35;;;;;;;57.17;24.23;;;2.70;99.90;;;;;;4996319;28;20034;-79
2020/12/15 02:18:01;;;;;;;53.00;23.08;;;2.70;99.90;;;;;;4979393;28;20050;-79
2020/12/15 02:20:26;;;;;;;59.15;24.08;;;2.60;99.90;;;;;;4996660;28;20463;-79
2020/12/15 02:22:52;;;;;;;61.97;23.85;;;2.60;99.90;;;;;;4997140;28;20445;-79
2020/12/15 02:25:18;;;;;;;55.03;24.13;;;2.60;99.90;;;;;;4996830;28;20051;-78
2020/12/15 02:27:43;;;;;;;60.45;24.60;;;2.60;99.90;;;;;;4996811;28;20035;-78
2020/12/15 02:30:09;;;;;;;62.03;25.45;;;2.60;99.90;;;;;;4996982;28;20373;-79
2020/12/15 02:32:35;;;;;;;56.90;22.38;;;2.60;99.90;;;;;;4996322;28;20030;-80
2020/12/15 02:35:02;;;;;;;56.67;24.48;;;2.60;99.90;;;;;;4996296;28;20030;-78
2020/12/15 02:37:27;;;;;;;52.53;22.27;;;2.60;99.90;;;;;;4996092;28;20053;-78
2020/12/15 02:40:01;;;;;;;56.72;23.25;;;2.60;99.90;;;;;;4995806;28;20058;-79
2020/12/15 02:42:30;;;;;;;54.75;23.33;;;2.70;99.90;;;;;;4995390;28;20022;-78
2020/12/15 02:44:57;;;;;;;61.92;25.17;;;2.70;99.90;;;;;;4994883;28;20034;-78
2020/12/15 02:47:23;;;;;;;69.25;26.48;;;2.70;99.90;;;;;;4994878;28;20141;-78
2020/12/15 02:49:49;;;;;;;64.63;25.30;;;2.70;99.90;;;;;;4995778;28;20045;-79
2020/12/15 02:52:15;;;;;;;68.85;24.98;;;2.70;99.90;;;;;;4978231;28;20132;-78
2020/12/15 02:54:42;;;;;;;67.22;24.58;;;2.70;99.90;;;;;;4996082;28;20028;-79
2020/12/15 02:57:08;;;;;;;61.97;23.08;;;2.70;99.90;;;;;;4978618;28;20022;-79
2020/12/15 02:59:34;;;;;;;64.75;25.35;;;2.70;99.90;;;;;;4995388;28;20030;-79
2020/12/15 03:02:00;;;;;;;57.45;23.55;;;2.70;99.90;;;;;;4995220;28;20026;-79
2020/12/15 03:04:25;;;;;;;54.47;22.30;;;2.70;99.90;;;;;;4995774;28;20030;-79
2020/12/15 03:06:51;;;;;;;57.50;23.23;;;2.70;99.90;;;;;;4995830;28;20030;-79
2020/12/15 03:09:17;;;;;;;60.88;23.42;;;2.70;99.90;;;;;;4995509;28;20485;-79
2020/12/15 03:11:43;;;;;;;57.13;23.08;;;2.70;99.90;;;;;;4977618;28;20034;-79
2020/12/15 03:14:09;;;;;;;59.45;25.23;;;2.70;99.90;;;;;;4994629;28;20038;-78
2020/12/15 03:16:35;;;;;;;54.78;23.42;;;2.70;99.90;;;;;;4994891;28;20373;-80
2020/12/15 03:19:01;;;;;;;51.35;22.92;;;2.70;99.90;;;;;;4995261;28;20026;-78
2020/12/15 03:21:27;;;;;;;50.20;21.65;;;2.70;99.90;;;;;;4995255;28;20031;-79
2020/12/15 03:23:54;;;;;;;55.33;23.00;;;2.70;99.90;;;;;;4978044;28;20116;-79
2020/12/15 03:26:19;;;;;;;58.47;23.77;;;2.70;99.90;;;;;;4977807;28;20026;-79
2020/12/15 03:28:45;;;;;;;52.78;23.90;;;2.70;99.90;;;;;;4995304;28;20040;-78
2020/12/15 03:31:12;;;;;;;61.67;24.25;;;2.70;99.90;;;;;;4994912;28;20038;-79
2020/12/15 03:33:38;;;;;;;55.00;23.77;;;2.70;99.90;;;;;;5009878;28;20026;-79
2020/12/15 03:36:04;;;;;;;51.35;23.60;;;2.70;99.90;;;;;;4995155;28;20026;-79
2020/12/15 03:38:30;;;;;;;51.22;23.83;;;2.70;99.90;;;;;;4977271;28;20128;-79
2020/12/15 03:40:56;;;;;;;58.10;24.00;;;2.70;99.90;;;;;;4994712;28;20030;-80
2020/12/15 03:43:22;;;;;;;58.53;24.95;;;2.70;99.90;;;;;;4994554;28;20469;-79
2020/12/15 03:45:48;;;;;;;63.47;24.85;;;2.70;99.90;;;;;;4993990;28;20057;-79
2020/12/15 03:48:14;;;;;;;60.97;26.10;;;2.70;99.90;;;;;;4993705;28;20496;-79
2020/12/15 03:50:40;;;;;;;59.92;26.80;;;2.70;99.90;;;;;;4994215;28;20030;-79
2020/12/15 03:53:06;;;;;;;65.13;27.13;;;2.70;99.90;;;;;;4994514;28;20507;-80
2020/12/15 03:55:32;;;;;;;59.22;24.90;;;2.70;99.90;;;;;;4994291;28;20380;-79
2020/12/15 03:57:58;;;;;;;61.28;24.88;;;2.70;99.90;;;;;;4994052;28;20469;-80
2020/12/15 04:00:23;;;;;;;60.33;25.67;;;2.70;99.90;;;;;;4994249;28;20484;-80
2020/12/15 04:02:49;;;;;;;62.58;24.35;;;2.70;99.90;;;;;;4994631;28;20469;-79
2020/12/15 04:05:15;;;;;;;61.28;23.67;;;2.70;99.90;;;;;;4994723;28;20038;-79
2020/12/15 04:07:42;;;;;;;57.17;24.15;;;2.70;99.90;;;;;;4994642;28;20034;-80
2020/12/15 04:10:10;;;;;;;58.95;24.45;;;2.70;99.90;;;;;;4994628;28;20026;-79
2020/12/15 04:12:36;;;;;;;67.15;26.08;;;2.70;99.90;;;;;;4994557;28;20030;-79
2020/12/15 04:15:04;;;;;;;65.07;26.13;;;2.70;99.90;;;;;;4994366;28;20109;-79
2020/12/15 04:17:30;;;;;;;64.40;27.35;;;2.70;99.90;;;;;;4993415;28;20026;-79
2020/12/15 04:19:55;;;;;;;66.90;27.85;;;2.70;99.90;;;;;;4993602;28;20651;-79
2020/12/15 04:22:22;;;;;;;68.68;26.73;;;2.80;99.90;;;;;;4993355;28;20354;-79
2020/12/15 04:24:48;;;;;;;62.20;25.27;;;2.70;99.90;;;;;;4993223;28;20033;-80
2020/12/15 04:27:13;;;;;;;61.67;24.85;;;2.70;99.90;;;;;;5008439;28;20034;-79
2020/12/15 04:29:40;;;;;;;73.05;28.77;;;2.70;99.90;;;;;;4993116;28;20062;-79
2020/12/15 04:32:06;;;;;;;68.45;28.70;;;2.70;99.90;;;;;;4993306;28;20097;-79
2020/12/15 04:34:31;;;;;;;73.00;30.60;;;2.70;99.90;;;;;;5008679;28;20057;-78
2020/12/15 04:36:57;;;;;;;70.18;27.90;;;2.70;99.90;;;;;;4993916;28;20086;-79
2020/12/15 04:39:24;;;;;;;75.57;31.65;;;2.70;99.90;;;;;;4991962;28;20030;-79
2020/12/15 04:41:50;;;;;;;81.82;32.78;;;2.70;99.90;;;;;;5015621;28;20018;-78
2020/12/15 04:44:16;;;;;;;78.55;32.80;;;2.70;99.90;;;;;;5005092;28;20029;-79
2020/12/15 04:47:15;;;;;;;77.85;31.85;;;2.70;99.90;;;;;;4994317;28;20046;-80
2020/12/15 04:50:07;;;;;;;70.63;27.88;;;2.70;99.90;;;;;;4993757;28;20582;-79
2020/12/15 04:53:02;;;;;;;65.72;26.85;;;2.70;99.90;;;;;;4994040;28;20128;-80
2020/12/15 04:55:28;;;;;;;63.45;25.33;;;2.70;99.90;;;;;;4994947;28;20026;-79
2020/12/15 04:57:56;;;;;;;62.22;26.45;;;2.70;99.90;;;;;;4994486;28;20026;-79
2020/12/15 05:00:25;;;;;;;65.53;25.92;;;2.70;99.90;;;;;;4993022;28;20029;-79
2020/12/15 05:02:52;;;;;;;64.80;24.98;;;2.70;99.90;;;;;;4975379;28;20392;-79
2020/12/15 05:05:20;;;;;;;71.00;29.42;;;2.70;99.90;;;;;;4992631;28;20036;-80
2020/12/15 05:07:46;;;;;;;66.45;28.95;;;2.70;99.90;;;;;;4993038;28;20022;-79
2020/12/15 05:10:17;;;;;;;66.47;28.10;;;2.80;99.90;;;;;;5009580;28;20397;-80
2020/12/15 05:12:43;;;;;;;74.43;30.50;;;2.70;99.90;;;;;;4978393;28;20030;-80
2020/12/15 05:15:13;;;;;;;111.35;41.65;;;2.70;99.90;;;;;;4978600;28;20069;-79
2020/12/15 05:17:41;;;;;;;120.78;46.08;;;2.80;99.90;;;;;;4996005;28;20030;-79
2020/12/15 05:20:08;;;;;;;109.90;49.60;;;2.70;99.90;;;;;;4979711;28;20488;-80
2020/12/15 05:22:51;;;;;;;106.93;42.05;;;2.70;99.90;;;;;;4997455;28;20045;-80
2020/12/15 05:25:31;;;;;;;85.05;36.55;;;2.80;99.90;;;;;;4997593;28;20039;-82
2020/12/15 05:28:00;;;;;;;87.25;36.13;;;2.80;99.90;;;;;;4998241;28;20026;-80
2020/12/15 05:30:26;;;;;;;73.35;29.85;;;2.80;99.90;;;;;;4998871;28;20026;-81
2020/12/15 05:32:57;;;;;;;66.97;26.92;;;2.80;99.90;;;;;;4999080;28;20022;-80
2020/12/15 05:35:28;;;;;;;68.97;27.83;;;2.80;99.90;;;;;;4999132;28;20041;-80
2020/12/15 05:38:06;;;;;;;65.28;27.15;;;2.70;99.90;;;;;;4998544;28;20070;-80
2020/12/15 05:40:32;;;;;;;61.47;27.45;;;2.80;99.90;;;;;;4979411;28;20027;-79
2020/12/15 05:43:06;;;;;;;67.63;28.50;;;2.80;99.90;;;;;;4997258;28;20031;-81
2020/12/15 05:45:34;;;;;;;62.85;27.50;;;2.80;99.90;;;;;;4979919;28;20054;-78
2020/12/15 05:48:05;;;;;;;63.75;26.63;;;2.80;99.90;;;;;;4997301;28;20084;-80
2020/12/15 05:50:32;;;;;;;67.53;28.42;;;2.80;99.90;;;;;;4997526;28;20487;-79
2020/12/15 05:53:00;;;;;;;70.30;28.60;;;2.80;99.90;;;;;;4996684;28;20050;-79
2020/12/15 05:55:27;;;;;;;65.13;27.70;;;2.80;99.90;;;;;;5014745;28;20026;-80
2020/12/15 05:57:54;;;;;;;60.95;27.58;;;2.80;99.90;;;;;;5015763;28;20033;-80
2020/12/15 06:00:20;;;;;;;75.05;34.35;;;2.80;99.90;;;;;;5015864;28;20022;-79
2020/12/15 06:03:15;;;;;;;90.13;37.13;;;2.80;99.90;;;;;;4997119;28;20057;-79
2020/12/15 06:05:41;;;;;;;86.68;37.65;;;2.80;99.90;;;;;;4995015;28;20069;-80
2020/12/15 06:08:07;;;;;;;80.32;39.10;;;2.80;99.90;;;;;;5015085;28;20459;-80
2020/12/15 06:10:34;;;;;;;88.72;37.47;;;2.80;99.90;;;;;;5014887;28;20048;-81
2020/12/15 06:13:02;;;;;;;77.25;34.28;;;2.80;99.90;;;;;;4996138;28;20026;-77
2020/12/15 06:15:29;;;;;;;73.45;30.73;;;2.80;99.90;;;;;;5013362;28;20088;-75
2020/12/15 06:17:56;;;;;;;61.47;30.63;;;2.80;99.90;;;;;;5014310;28;20029;-79
2020/12/15 06:20:23;;;;;;;74.13;30.15;;;2.90;99.90;;;;;;4995828;28;20389;-77
2020/12/15 06:22:53;;;;;;;76.55;31.70;;;2.90;99.90;;;;;;5013302;28;20030;-79
2020/12/15 06:25:30;;;;;;;84.28;34.97;;;2.80;99.90;;;;;;4996267;28;20034;-80
2020/12/15 06:28:02;;;;;;;74.45;30.35;;;2.90;99.90;;;;;;5010432;28;20056;-79
2020/12/15 06:30:30;;;;;;;66.83;28.50;;;2.90;99.90;;;;;;4982184;28;20049;-78
2020/12/15 06:33:01;;;;;;;66.85;27.27;;;2.90;99.90;;;;;;4979641;28;20026;-77
2020/12/15 06:35:27;;;;;;;60.97;26.05;;;3.00;99.90;;;;;;4957234;28;20027;-79
2020/12/15 06:37:53;;;;;;;61.50;25.45;;;2.90;99.90;;;;;;4976179;28;20027;-80
2020/12/15 06:40:18;;;;;;;60.28;26.08;;;2.90;99.90;;;;;;4958199;28;20113;-79
2020/12/15 06:42:49;;;;;;;62.67;26.20;;;3.00;99.90;;;;;;4974665;28;20150;-79
2020/12/15 06:45:14;;;;;;;59.33;26.35;;;3.00;99.90;;;;;;4974380;28;20058;-77
2020/12/15 06:47:40;;;;;;;60.67;25.13;;;3.00;99.90;;;;;;4974393;28;20133;-76
2020/12/15 06:50:18;;;;;;;60.47;26.17;;;3.00;99.90;;;;;;4974686;28;20083;-79
2020/12/15 06:52:45;;;;;;;55.33;25.27;;;3.00;99.90;;;;;;4973774;28;20495;-78
2020/12/15 06:55:11;;;;;;;63.78;27.33;;;3.10;99.90;;;;;;4974172;28;20374;-78
2020/12/15 06:57:38;;;;;;;57.80;26.73;;;3.10;99.90;;;;;;4957120;28;20334;-79
2020/12/15 07:00:09;;;;;;;64.22;26.42;;;3.10;99.90;;;;;;4974443;28;20070;-78
2020/12/15 07:02:36;;;;;;;61.95;25.08;;;3.10;99.90;;;;;;4973777;28;20110;-79
2020/12/15 07:05:31;;;;;;;62.72;26.50;;;3.10;99.90;;;;;;4973749;28;20466;-78
2020/12/15 07:08:15;;;;;;;61.30;25.60;;;3.10;99.90;;;;;;4972907;28;20051;-78
2020/12/15 07:10:43;;;;;;;61.28;26.08;;;3.10;99.90;;;;;;4974221;28;20111;-79
2020/12/15 07:13:11;;;;;;;62.42;26.98;;;3.20;99.90;;;;;;4975441;28;20417;-79
2020/12/15 07:15:37;;;;;;;61.55;27.70;;;3.20;99.90;;;;;;4956818;28;20458;-81
2020/12/15 07:18:04;;;;;;;65.90;27.73;;;3.20;99.90;;;;;;4974744;28;20058;-82
2020/12/15 07:20:30;;;;;;;77.55;29.75;;;3.20;99.90;;;;;;4957446;28;20058;-79
2020/12/15 07:22:56;;;;;;;73.55;30.95;;;3.20;99.90;;;;;;4973894;28;20089;-79
2020/12/15 07:25:22;;;;;;;72.88;31.75;;;3.30;99.90;;;;;;4973649;28;20429;-79
2020/12/15 07:27:48;;;;;;;77.88;33.35;;;3.30;99.90;;;;;;4957046;28;20066;-80
2020/12/15 07:30:20;;;;;;;63.10;27.75;;;3.30;99.90;;;;;;4973741;28;20473;-81
2020/12/15 07:32:47;;;;;;;73.43;29.80;;;3.30;99.90;;;;;;4972945;28;20030;-79
2020/12/15 07:35:22;;;;;;;71.53;28.65;;;3.30;99.90;;;;;;4973722;28;20031;-79
2020/12/15 07:37:49;;;;;;;84.15;34.75;;;3.30;99.90;;;;;;4974391;28;20014;-79
2020/12/15 07:40:19;;;;;;;71.13;30.05;;;3.40;99.90;;;;;;4956566;28;20381;-80
2020/12/15 07:43:02;;;;;;;72.25;28.25;;;3.40;99.90;;;;;;4974166;28;20027;-79
2020/12/15 07:45:30;;;;;;;65.93;27.58;;;3.40;99.90;;;;;;4974078;28;20565;-79
2020/12/15 07:47:57;;;;;;;62.67;28.00;;;3.40;99.90;;;;;;4957014;28;20845;-79
2020/12/15 07:50:30;;;;;;;70.90;31.75;;;3.50;99.90;;;;;;4974665;28;20023;-79
2020/12/15 07:53:06;;;;;;;67.50;29.23;;;3.50;99.90;;;;;;4957221;28;20031;-79
2020/12/15 07:55:31;;;;;;;73.38;30.90;;;3.50;99.90;;;;;;4974403;28;20023;-80
2020/12/15 07:57:57;;;;;;;60.25;27.17;;;3.60;99.90;;;;;;4974477;28;20101;-81
2020/12/15 08:00:24;;;;;;;62.17;28.38;;;3.60;99.90;;;;;;4976753;28;20019;-80
2020/12/15 08:02:51;;;;;;;63.92;27.63;;;3.60;99.90;;;;;;4974288;28;20035;-79
2020/12/15 08:05:23;;;;;;;66.80;31.48;;;3.60;99.90;;;;;;4973969;28;20032;-78
2020/12/15 08:08:02;;;;;;;68.43;28.02;;;3.60;99.90;;;;;;4956501;28;20094;-79
2020/12/15 08:10:36;;;;;;;63.47;27.35;;;3.60;99.90;;;;;;4974044;28;20090;-79
2020/12/15 08:13:04;;;;;;;70.25;27.65;;;3.70;99.90;;;;;;4973575;28;20108;-79
2020/12/15 08:15:36;;;;;;;61.13;26.27;;;3.70;99.90;;;;;;4973759;28;20023;-79
2020/12/15 08:18:03;;;;;;;59.92;26.25;;;3.70;99.90;;;;;;4974113;28;20709;-79
2020/12/15 08:20:31;;;;;;;68.65;30.60;;;3.80;99.90;;;;;;4956930;28;20031;-79
2020/12/15 08:23:13;;;;;;;66.80;30.33;;;3.80;99.90;;;;;;4956192;28;20026;-78
2020/12/15 08:25:44;;;;;;;63.50;28.70;;;3.80;99.90;;;;;;4973192;28;20041;-80
2020/12/15 08:28:24;;;;;;;65.78;27.98;;;3.90;99.90;;;;;;4973762;28;20081;-79
2020/12/15 08:30:55;;;;;;;65.18;28.73;;;3.90;99.90;;;;;;4973771;28;20031;-79
2020/12/15 08:33:25;;;;;;;69.55;29.30;;;3.90;99.90;;;;;;4973608;28;20037;-79
2020/12/15 08:35:57;;;;;;;61.53;27.42;;;4.00;99.90;;;;;;4973819;28;20019;-80
2020/12/15 08:38:25;;;;;;;93.05;41.42;;;4.00;99.90;;;;;;4973502;28;20022;-79
2020/12/15 08:40:59;;;;;;;75.57;32.90;;;4.10;99.90;;;;;;4956201;28;20030;-79
2020/12/15 08:43:26;;;;;;;70.95;30.42;;;4.10;99.90;;;;;;4973349;28;20027;-79
2020/12/15 08:45:52;;;;;;;69.40;29.35;;;4.20;99.90;;;;;;4958373;28;20051;-80
2020/12/15 08:48:20;;;;;;;65.38;29.25;;;4.20;99.90;;;;;;4976862;28;20026;-80
2020/12/15 08:50:47;;;;;;;67.03;29.70;;;4.30;99.90;;;;;;4977024;28;20023;-79
2020/12/15 08:53:15;;;;;;;67.32;29.63;;;4.40;99.90;;;;;;4976998;28;20130;-79
2020/12/15 08:55:44;;;;;;;61.85;29.13;;;4.50;99.90;;;;;;4978205;28;20023;-79
2020/12/15 08:58:10;;;;;;;60.15;27.52;;;4.60;99.90;;;;;;4976759;28;20015;-79
2020/12/15 09:00:39;;;;;;;64.75;28.95;;;4.60;99.90;;;;;;4976828;28;20034;-79
2020/12/15 09:03:09;;;;;;;68.28;29.73;;;4.60;99.90;;;;;;4960059;28;20031;-79
2020/12/15 09:05:52;;;;;;;63.05;27.83;;;4.70;99.90;;;;;;4960142;28;20474;-79
2020/12/15 09:08:20;;;;;;;83.18;31.35;;;4.70;99.90;;;;;;4977068;28;20205;-79
2020/12/15 09:10:47;;;;;;;60.47;27.20;;;4.80;99.90;;;;;;4976934;28;20027;-79
2020/12/15 09:13:12;;;;;;;67.00;29.55;;;4.90;99.90;;;;;;4976262;28;20027;-79
2020/12/15 09:15:55;;;;;;;61.90;29.83;;;5.00;99.90;;;;;;4976894;28;20449;-80
2020/12/15 09:18:34;;;;;;;68.47;32.97;;;5.10;99.90;;;;;;4976807;28;20119;-79
2020/12/15 09:21:18;;;;;;;55.47;26.77;;;5.20;99.90;;;;;;4976751;28;20034;-80
2020/12/15 09:23:52;;;;;;;62.60;28.55;;;5.20;99.90;;;;;;4976032;28;20023;-79
2020/12/15 09:26:19;;;;;;;55.85;26.45;;;5.30;99.90;;;;;;4977034;28;20030;-80
2020/12/15 09:28:45;;;;;;;56.88;25.48;;;5.40;99.90;;;;;;4959130;28;20035;-79
2020/12/15 09:31:17;;;;;;;56.45;25.70;;;5.50;99.90;;;;;;4958879;28;20073;-80
2020/12/15 09:33:43;;;;;;;;;;;5.50;99.90;;;;;;4976134;28;20023;-79
2020/12/15 09:36:15;;;;;;;54.08;25.80;;;5.60;99.90;;;;;;4975696;28;20280;-80
2020/12/15 09:38:41;;;;;;;59.97;26.57;;;5.60;99.90;;;;;;4976051;28;20027;-79
2020/12/15 09:41:07;;;;;;;53.15;26.02;;;5.70;99.90;;;;;;4976395;28;20094;-80
2020/12/15 09:43:33;;;;;;;61.45;28.20;;;5.70;99.90;;;;;;4976402;28;20038;-80
2020/12/15 09:46:01;;;;;;;57.33;26.55;;;5.70;99.90;;;;;;4975612;28;20078;-80
2020/12/15 09:48:27;;;;;;;57.70;26.60;;;5.70;99.90;;;;;;4958621;28;20035;-79
2020/12/15 09:50:53;;;;;;;54.30;25.08;;;5.70;99.90;;;;;;4958554;28;20524;-81
2020/12/15 09:53:19;;;;;;;49.75;23.98;;;5.70;99.90;;;;;;4975777;28;20023;-80
2020/12/15 09:55:44;;;;;;;57.55;25.23;;;5.70;99.90;;;;;;4975459;28;20077;-80
2020/12/15 09:58:10;;;;;;;47.80;23.40;;;5.80;99.90;;;;;;4975743;28;20103;-79
2020/12/15 10:00:36;;;;;;;49.83;25.08;;;5.90;99.90;;;;;;4975907;28;20099;-79
2020/12/15 10:03:02;;;;;;;50.80;24.13;;;6.00;99.90;;;;;;4975545;28;20041;-79
2020/12/15 10:05:30;;;;;;;56.35;25.65;;;6.00;99.90;;;;;;4958338;28;20474;-79
2020/12/15 10:07:55;;;;;;;58.97;26.50;;;6.10;99.90;;;;;;4975873;28;20711;-80
2020/12/15 10:10:21;;;;;;;59.05;26.00;;;6.10;99.90;;;;;;4975944;28;20038;-79
2020/12/15 10:12:47;;;;;;;61.38;27.83;;;6.10;99.90;;;;;;4975385;28;20030;-81
2020/12/15 10:15:13;;;;;;;58.72;26.98;;;6.10;99.90;;;;;;4975752;28;20030;-80
2020/12/15 10:17:40;;;;;;;50.80;23.95;;;6.00;99.90;;;;;;4957426;28;20026;-79
2020/12/15 10:20:06;;;;;;;51.67;24.65;;;5.90;99.90;;;;;;4975525;28;20028;-79
2020/12/15 10:22:32;;;;;;;52.90;24.58;;;5.90;99.90;;;;;;4974836;28;20026;-78
2020/12/15 10:24:58;;;;;;;45.75;22.75;;;5.80;99.90;;;;;;4974759;28;20097;-79
2020/12/15 10:27:23;;;;;;;53.35;24.58;;;5.80;99.90;;;;;;4974672;28;20035;-80
2020/12/15 10:29:49;;;;;;;66.03;31.08;;;5.80;99.90;;;;;;4957296;28;20385;-79
2020/12/15 10:32:15;;;;;;;76.20;37.22;;;5.80;99.90;;;;;;4956806;28;20034;-80
2020/12/15 10:34:41;;;;;;;66.97;30.02;;;5.70;99.90;;;;;;4974652;28;20023;-79
2020/12/15 10:37:06;;;;;;;64.60;28.02;;;5.70;99.90;;;;;;4974706;28;20071;-79
2020/12/15 10:39:32;;;;;;;64.22;30.70;;;5.70;99.90;;;;;;4973832;28;20027;-79
2020/12/15 10:41:58;;;;;;;53.33;27.40;;;5.60;99.90;;;;;;4973875;28;20485;-79
2020/12/15 10:44:23;;;;;;;55.45;27.48;;;5.60;99.90;;;;;;4973621;28;20465;-79
2020/12/15 10:46:50;;;;;;;57.20;28.90;;;5.60;99.90;;;;;;4974022;28;20121;-80
2020/12/15 10:49:17;;;;;;;66.28;31.13;;;5.60;99.90;;;;;;4973748;28;20023;-79
2020/12/15 10:51:43;;;;;;;73.15;34.97;;;5.60;99.90;;;;;;4974688;28;20086;-78
2020/12/15 10:54:09;;;;;;;59.60;29.52;;;5.50;99.90;;;;;;4974043;28;20031;-80
2020/12/15 10:56:35;;;;;;;54.97;28.75;;;5.50;99.90;;;;;;4956956;28;20085;-80
2020/12/15 10:59:01;;;;;;;53.80;26.88;;;5.50;99.90;;;;;;4974647;28;20097;-80
2020/12/15 11:01:28;;;;;;;49.83;27.33;;;5.40;99.90;;;;;;4973816;28;20023;-82
2020/12/15 11:03:53;;;;;;;46.60;24.90;;;5.40;99.90;;;;;;4974283;28;20027;-82
2020/12/15 11:06:24;;;;;;;51.20;25.33;;;5.40;99.90;;;;;;4974280;28;20034;-81
2020/12/15 11:08:50;;;;;;;55.38;27.73;;;5.30;99.90;;;;;;4956991;28;20031;-81
2020/12/15 11:11:15;;;;;;;55.10;29.75;;;5.30;99.90;;;;;;4974569;28;20035;-81
2020/12/15 11:13:41;;;;;;;58.28;29.73;;;5.30;99.90;;;;;;4975672;28;20026;-81
2020/12/15 11:16:07;;;;;;;54.97;27.58;;;5.30;99.90;;;;;;4975049;28;20030;-82
2020/12/15 11:18:33;;;;;;;53.88;26.80;;;5.30;99.90;;;;;;4975038;28;20107;-82
2020/12/15 11:20:59;;;;;;;50.80;27.08;;;5.30;99.90;;;;;;4974548;28;20114;-83
2020/12/15 11:23:25;;;;;;;60.13;29.40;;;5.30;99.90;;;;;;4975031;28;20042;-81
2020/12/15 11:25:50;;;;;;;58.05;29.00;;;5.40;99.90;;;;;;4981405;28;20032;-84
2020/12/15 11:28:17;;;;;;;56.50;27.52;;;5.40;99.90;;;;;;4976173;28;20045;-83
2020/12/15 11:30:43;;;;;;;50.03;26.10;;;5.40;99.90;;;;;;4994621;28;20034;-84
2020/12/15 11:33:09;;;;;;;50.28;25.40;;;5.40;99.90;;;;;;4976271;28;20034;-84
2020/12/15 11:35:35;;;;;;;48.53;24.55;;;5.30;99.90;;;;;;4993968;28;20046;-83
2020/12/15 11:38:02;;;;;;;46.78;25.00;;;5.30;99.90;;;;;;4993706;28;20165;-84
2020/12/15 11:40:28;;;;;;;45.42;24.13;;;5.30;99.90;;;;;;4976112;28;20354;-82
2020/12/15 11:42:56;;;;;;;54.70;27.08;;;5.20;99.90;;;;;;4996046;28;20026;-84
2020/12/15 11:45:23;;;;;;;48.20;24.58;;;5.20;99.90;;;;;;4976143;28;20050;-83
2020/12/15 11:47:49;;;;;;;50.72;25.77;;;5.10;99.90;;;;;;4974201;28;20190;-82
2020/12/15 11:50:15;;;;;;;63.72;30.27;;;5.10;99.90;;;;;;4985210;28;20025;-82
2020/12/15 11:52:40;;;;;;;60.40;30.48;;;5.00;99.90;;;;;;4982864;28;20102;-82
2020/12/15 11:55:06;;;;;;;52.33;27.30;;;5.00;99.90;;;;;;4965982;28;20029;-82
2020/12/15 11:57:35;;;;;;;60.75;32.03;;;5.00;99.90;;;;;;4983975;28;20061;-81
2020/12/15 12:00:05;;;;;;;62.90;31.13;;;5.00;99.90;;;;;;4992398;28;20077;-81
2020/12/15 12:02:31;;;;;;;60.95;32.70;;;5.00;99.90;;;;;;4977192;28;20089;-83
2020/12/15 12:04:57;;;;;;;60.42;31.30;;;4.90;99.90;;;;;;4993999;28;20393;-83
2020/12/15 12:07:22;;;;;;;60.30;29.35;;;4.90;99.90;;;;;;4976964;28;20527;-83
2020/12/15 12:09:48;;;;;;;65.85;31.70;;;4.90;99.90;;;;;;4976378;28;20547;-82
2020/12/15 12:12:14;;;;;;;58.85;28.38;;;4.90;99.90;;;;;;4994093;28;20053;-82
2020/12/15 12:14:40;;;;;;;64.07;31.35;;;4.80;99.90;;;;;;4976636;28;20085;-83
2020/12/15 12:17:05;;;;;;;69.07;32.92;;;4.80;99.90;;;;;;4994258;28;20031;-83
2020/12/15 12:19:31;;;;;;;66.88;33.53;;;4.80;99.90;;;;;;4976236;28;20691;-83
2020/12/15 12:22:08;;;;;;;63.08;32.83;;;4.80;99.90;;;;;;4977086;28;20031;-83
2020/12/15 12:24:34;;;;;;;61.17;33.60;;;4.70;99.90;;;;;;4996474;28;20526;-82
2020/12/15 12:27:00;;;;;;;70.75;38.53;;;4.70;99.90;;;;;;4994544;28;20056;-83
2020/12/15 12:29:26;;;;;;;68.97;35.42;;;4.60;99.90;;;;;;4997742;28;20050;-83
2020/12/15 12:31:52;;;;;;;82.95;34.88;;;4.50;99.90;;;;;;4994550;28;20029;-83
2020/12/15 12:34:18;;;;;;;67.03;31.20;;;4.50;99.90;;;;;;4993520;28;20026;-83
2020/12/15 12:36:44;;;;;;;65.90;35.13;;;4.50;99.90;;;;;;4993757;28;20420;-83
2020/12/15 12:39:10;;;;;;;75.20;40.67;;;4.40;99.90;;;;;;4993754;28;20473;-82
2020/12/15 12:41:36;;;;;;;71.93;40.88;;;4.40;99.90;;;;;;4993577;28;20061;-82